Time,TemperatureF,DewpointF,PressureIn,WindDirection,WindDirectionDegrees,WindSpeedMPH,WindSpeedGustMPH,Humidity,HourlyPrecipIn,Conditions,Clouds,dailyrainin,SoftwareType,DateUTC
2013-08-20 00:03:00,83.8,74.3,29.68,ENE,68,2.7,7.4,73,0.00,,---,0.00,VWS V13.01,2013-08-20 04:03:00,
2013-08-20 00:09:00,83.8,73.8,29.68,ENE,68,6.7,6.7,72,0.00,,---,0.00,VWS V13.01,2013-08-20 04:09:00,
2013-08-20 00:14:00,83.8,73.8,29.67,ESE,112,4.0,6.7,72,0.00,,---,0.00,VWS V13.01,2013-08-20 04:14:00,
2013-08-20 00:18:00,83.8,73.8,29.67,ESE,112,0.9,4.0,72,0.00,,---,0.00,VWS V13.01,2013-08-20 04:18:00,
2013-08-20 00:23:00,83.8,73.8,29.68,East,90,2.5,2.5,72,0.00,,---,0.00,VWS V13.01,2013-08-20 04:23:00,
2013-08-20 00:28:00,83.7,73.7,29.68,ENE,68,1.3,2.5,72,0.00,,---,0.00,VWS V13.01,2013-08-20 04:28:00,
2013-08-20 00:33:00,83.7,73.7,29.68,ESE,112,0.2,1.3,72,0.00,,---,0.00,VWS V13.01,2013-08-20 04:33:00,
2013-08-20 00:44:00,83.7,73.7,29.68,ENE,68,0.0,1.6,72,0.00,,---,0.00,VWS V13.01,2013-08-20 04:44:00,
2013-08-20 00:54:00,83.5,73.5,29.68,East,90,0.7,0.7,72,0.00,,---,0.00,VWS V13.01,2013-08-20 04:54:00,
2013-08-20 01:03:00,83.5,73.5,29.68,ENE,68,0.0,0.7,72,0.00,,---,0.00,VWS V13.01,2013-08-20 05:03:00,
2013-08-20 01:09:00,83.5,73.5,29.68,ESE,112,3.4,3.4,72,0.00,,---,0.00,VWS V13.01,2013-08-20 05:09:00,
2013-08-20 01:14:00,83.5,73.5,29.67,ENE,68,1.8,3.4,72,0.00,,---,0.00,VWS V13.01,2013-08-20 05:14:00,
2013-08-20 01:23:00,83.5,73.5,29.67,NE,45,4.5,6.0,72,0.00,,---,0.00,VWS V13.01,2013-08-20 05:23:00,
2013-08-20 01:29:00,83.5,73.5,29.67,NE,45,4.5,4.5,72,0.00,,---,0.00,VWS V13.01,2013-08-20 05:29:00,
2013-08-20 01:38:00,83.5,73.5,29.66,ENE,68,1.6,8.3,72,0.00,,---,0.00,VWS V13.01,2013-08-20 05:38:00,
2013-08-20 01:43:00,83.5,73.5,29.66,ENE,68,0.0,1.6,72,0.00,,---,0.00,VWS V13.01,2013-08-20 05:43:00,
2013-08-20 01:48:00,83.5,73.5,29.66,East,90,0.7,0.7,72,0.00,,---,0.00,VWS V13.01,2013-08-20 05:48:00,
2013-08-20 01:54:00,83.5,73.5,29.66,ESE,112,6.7,6.7,72,0.00,,---,0.00,VWS V13.01,2013-08-20 05:54:00,
2013-08-20 02:03:00,83.5,73.5,29.66,ENE,68,0.0,5.6,72,0.00,,---,0.00,VWS V13.01,2013-08-20 06:03:00,
2013-08-20 02:08:00,83.5,73.5,29.66,ENE,68,1.1,1.1,72,0.00,,---,0.00,VWS V13.01,2013-08-20 06:08:00,
2013-08-20 02:13:00,83.3,73.3,29.66,East,90,6.9,6.9,72,0.00,,---,0.00,VWS V13.01,2013-08-20 06:13:00,
2013-08-20 02:18:00,83.3,73.3,29.66,ENE,68,3.8,6.9,72,0.00,,---,0.00,VWS V13.01,2013-08-20 06:18:00,
2013-08-20 02:29:00,83.3,73.3,29.65,ESE,112,9.8,9.8,72,0.00,,---,0.00,VWS V13.01,2013-08-20 06:29:00,
2013-08-20 02:38:00,83.1,73.2,29.65,SE,135,10.7,10.7,72,0.00,,---,0.00,VWS V13.01,2013-08-20 06:38:00,
2013-08-20 02:43:00,83.3,73.3,29.65,SE,135,9.4,10.7,72,0.00,,---,0.00,VWS V13.01,2013-08-20 06:43:00,
2013-08-20 02:54:00,82.8,73.2,29.65,SE,135,1.6,1.6,73,0.00,,---,0.00,VWS V13.01,2013-08-20 06:54:00,
2013-08-20 03:03:00,82.2,72.7,29.65,SE,135,1.8,1.8,73,0.00,,---,0.00,VWS V13.01,2013-08-20 07:03:00,
2013-08-20 03:09:00,82.2,72.3,29.65,East,90,5.6,5.6,72,0.00,,---,0.00,VWS V13.01,2013-08-20 07:09:00,
2013-08-20 03:14:00,82.2,71.9,29.65,East,90,2.5,5.6,71,0.00,,---,0.00,VWS V13.01,2013-08-20 07:14:00,
2013-08-20 03:24:00,82.2,72.3,29.65,SE,135,7.6,7.6,72,0.00,,---,0.00,VWS V13.01,2013-08-20 07:24:00,
2013-08-20 03:33:00,82.2,72.7,29.65,SE,135,0.0,5.4,73,0.00,,---,0.00,VWS V13.01,2013-08-20 07:33:00,
2013-08-20 03:39:00,82.6,73.1,29.65,ENE,68,0.0,0.0,73,0.00,,---,0.00,VWS V13.01,2013-08-20 07:39:00,
2013-08-20 03:49:00,82.6,73.1,29.64,East,90,1.1,1.1,73,0.00,,---,0.00,VWS V13.01,2013-08-20 07:49:00,
2013-08-20 03:59:00,82.6,73.1,29.65,ESE,112,1.1,2.9,73,0.00,,---,0.00,VWS V13.01,2013-08-20 07:59:00,
2013-08-20 04:08:00,82.2,72.7,29.65,NE,45,0.0,3.1,73,0.00,,---,0.00,VWS V13.01,2013-08-20 08:08:00,
2013-08-20 04:18:00,82.0,72.1,29.65,ENE,68,0.0,0.0,72,0.00,,---,0.00,VWS V13.01,2013-08-20 08:18:00,
2013-08-20 04:24:00,82.0,72.5,29.64,East,90,2.0,2.7,73,0.00,,---,0.00,VWS V13.01,2013-08-20 08:24:00,
2013-08-20 04:33:00,82.0,72.9,29.64,SE,135,5.6,5.6,74,0.00,,---,0.00,VWS V13.01,2013-08-20 08:33:00,
2013-08-20 04:39:00,81.7,72.6,29.64,SE,135,5.4,5.6,74,0.00,,---,0.00,VWS V13.01,2013-08-20 08:39:00,
2013-08-20 04:48:00,81.7,72.2,29.64,SE,135,4.9,4.9,73,0.00,,---,0.00,VWS V13.01,2013-08-20 08:48:00,
2013-08-20 04:53:00,81.7,72.2,29.64,ESE,112,0.0,4.9,73,0.00,,---,0.00,VWS V13.01,2013-08-20 08:53:00,
2013-08-20 04:59:00,81.7,72.2,29.64,ESE,112,0.0,0.0,73,0.00,,---,0.00,VWS V13.01,2013-08-20 08:59:00,
2013-08-20 05:08:00,81.5,72.0,29.63,East,90,0.0,6.3,73,0.00,,---,0.00,VWS V13.01,2013-08-20 09:08:00,
2013-08-20 05:14:00,81.5,72.0,29.63,ESE,112,0.0,2.0,73,0.00,,---,0.00,VWS V13.01,2013-08-20 09:14:00,
2013-08-20 05:19:00,81.7,72.2,29.63,ESE,112,3.8,3.8,73,0.00,,---,0.00,VWS V13.01,2013-08-20 09:19:00,
2013-08-20 05:28:00,81.7,72.6,29.64,ESE,112,1.8,2.0,74,0.00,,---,0.00,VWS V13.01,2013-08-20 09:28:00,
2013-08-20 05:34:00,81.7,72.6,29.65,ESE,112,1.1,6.9,74,0.00,,---,0.00,VWS V13.01,2013-08-20 09:34:00,
2013-08-20 05:39:00,81.7,73.0,29.65,ENE,68,0.4,2.7,75,0.00,,---,0.00,VWS V13.01,2013-08-20 09:39:00,
2013-08-20 05:48:00,81.7,72.6,29.64,East,90,0.0,5.8,74,0.00,,---,0.00,VWS V13.01,2013-08-20 09:48:00,
2013-08-20 05:53:00,81.7,72.6,29.65,ESE,112,8.7,8.7,74,0.00,,---,0.00,VWS V13.01,2013-08-20 09:53:00,
2013-08-20 05:59:00,81.7,72.2,29.65,ESE,112,4.3,8.7,73,0.00,,---,0.00,VWS V13.01,2013-08-20 09:59:00,
2013-08-20 06:09:00,81.3,71.4,29.65,NE,45,2.9,4.3,72,0.00,,---,0.00,VWS V13.01,2013-08-20 10:09:00,
2013-08-20 06:18:00,81.1,71.7,29.65,ESE,112,2.5,3.4,73,0.00,,---,0.00,VWS V13.01,2013-08-20 10:18:00,
2013-08-20 06:24:00,81.1,72.1,29.65,East,90,4.5,4.5,74,0.00,,---,0.00,VWS V13.01,2013-08-20 10:24:00,
2013-08-20 06:29:00,81.1,72.1,29.65,SE,135,5.1,5.1,74,0.00,,---,0.00,VWS V13.01,2013-08-20 10:29:00,
2013-08-20 06:34:00,81.1,72.1,29.65,SE,135,5.1,5.1,74,0.00,,---,0.00,VWS V13.01,2013-08-20 10:34:00,
2013-08-20 06:43:00,81.5,72.8,29.65,ESE,112,1.6,1.6,75,0.00,,---,0.00,VWS V13.01,2013-08-20 10:43:00,
2013-08-20 06:49:00,81.5,72.8,29.65,ESE,112,1.6,1.6,75,0.00,,---,0.00,VWS V13.01,2013-08-20 10:49:00,
2013-08-20 06:59:00,81.5,72.8,29.66,ESE,112,4.9,4.9,75,0.00,,---,0.00,VWS V13.01,2013-08-20 10:59:00,
2013-08-20 07:09:00,81.5,72.8,29.66,East,90,3.6,3.6,75,0.00,,---,0.00,VWS V13.01,2013-08-20 11:09:00,
2013-08-20 07:18:00,81.7,72.6,29.65,ENE,68,2.5,2.5,74,0.00,,---,0.00,VWS V13.01,2013-08-20 11:18:00,
2013-08-20 07:23:00,81.7,72.6,29.65,East,90,1.6,5.8,74,0.00,,---,0.00,VWS V13.01,2013-08-20 11:23:00,
2013-08-20 07:29:00,81.7,72.6,29.66,ESE,112,4.0,4.0,74,0.00,,---,0.00,VWS V13.01,2013-08-20 11:29:00,
2013-08-20 07:39:00,82.0,72.5,29.66,ENE,68,0.0,4.0,73,0.00,,---,0.00,VWS V13.01,2013-08-20 11:39:00,
2013-08-20 07:49:00,82.2,73.1,29.67,ENE,68,0.0,4.5,74,0.00,,---,0.00,VWS V13.01,2013-08-20 11:49:00,
2013-08-20 07:59:00,83.1,73.6,29.67,SE,135,4.5,4.5,73,0.00,,---,0.00,VWS V13.01,2013-08-20 11:59:00,
2013-08-20 08:08:00,83.5,73.5,29.67,SE,135,1.1,8.3,72,0.00,,---,0.00,VWS V13.01,2013-08-20 12:08:00,
2013-08-20 08:19:00,84.0,74.0,29.67,ESE,112,2.2,3.6,72,0.00,,---,0.00,VWS V13.01,2013-08-20 12:19:00,
2013-08-20 08:29:00,84.0,74.0,29.67,ESE,112,2.0,2.0,72,0.00,,---,0.00,VWS V13.01,2013-08-20 12:29:00,
2013-08-20 08:38:00,84.9,74.5,29.68,NE,45,0.0,5.4,71,0.00,,---,0.00,VWS V13.01,2013-08-20 12:38:00,
2013-08-20 08:44:00,85.1,74.6,29.68,ESE,112,7.8,7.8,71,0.00,,---,0.00,VWS V13.01,2013-08-20 12:44:00,
2013-08-20 08:49:00,85.3,74.4,29.68,East,90,0.0,7.8,70,0.00,,---,0.00,VWS V13.01,2013-08-20 12:49:00,
2013-08-20 08:59:00,85.3,74.4,29.68,ENE,68,0.0,4.0,70,0.00,,---,0.00,VWS V13.01,2013-08-20 12:59:00,
2013-08-20 09:08:00,85.8,74.5,29.68,ENE,68,2.7,6.3,69,0.00,,---,0.00,VWS V13.01,2013-08-20 13:08:00,
2013-08-20 09:13:00,86.2,74.8,29.68,ENE,68,1.8,2.7,69,0.00,,---,0.00,VWS V13.01,2013-08-20 13:13:00,
2013-08-20 09:19:00,86.7,75.3,29.69,ESE,112,0.0,2.0,69,0.00,,---,0.00,VWS V13.01,2013-08-20 13:19:00,
2013-08-20 09:24:00,86.9,75.5,29.68,SE,135,0.0,0.0,69,0.00,,---,0.00,VWS V13.01,2013-08-20 13:24:00,
2013-08-20 09:29:00,87.1,75.7,29.68,East,90,2.5,7.4,69,0.00,,---,0.00,VWS V13.01,2013-08-20 13:29:00,
2013-08-20 09:38:00,87.1,75.2,29.69,ENE,68,0.0,7.6,68,0.00,,---,0.00,VWS V13.01,2013-08-20 13:38:00,
2013-08-20 09:44:00,87.3,75.8,29.69,SE,135,7.6,7.6,69,0.00,,---,0.00,VWS V13.01,2013-08-20 13:44:00,
2013-08-20 09:53:00,87.6,74.9,29.69,ENE,68,0.0,2.9,66,0.00,,---,0.00,VWS V13.01,2013-08-20 13:53:00,
2013-08-20 10:04:00,88.2,74.9,29.69,ENE,68,4.7,10.1,65,0.00,,---,0.00,VWS V13.01,2013-08-20 14:04:00,
2013-08-20 10:14:00,88.2,74.9,29.69,East,90,8.1,8.1,65,0.00,,---,0.00,VWS V13.01,2013-08-20 14:14:00,
2013-08-20 10:19:00,88.3,75.1,29.70,SE,135,1.6,8.1,65,0.00,,---,0.00,VWS V13.01,2013-08-20 14:19:00,
2013-08-20 10:29:00,88.2,74.9,29.69,East,90,9.4,9.4,65,0.00,,---,0.00,VWS V13.01,2013-08-20 14:29:00,
2013-08-20 10:39:00,88.0,74.8,29.69,ENE,68,11.2,11.2,65,0.00,,---,0.00,VWS V13.01,2013-08-20 14:39:00,
2013-08-20 10:44:00,88.5,75.3,29.69,ENE,68,7.2,11.2,65,0.00,,---,0.00,VWS V13.01,2013-08-20 14:44:00,
2013-08-20 10:54:00,89.4,75.2,29.70,ESE,112,12.3,12.3,63,0.00,,---,0.00,VWS V13.01,2013-08-20 14:54:00,
2013-08-20 11:03:00,90.0,75.2,29.70,ENE,68,4.7,6.9,62,0.00,,---,0.00,VWS V13.01,2013-08-20 15:03:00,
2013-08-20 11:09:00,90.0,75.2,29.70,SE,135,7.2,8.7,62,0.00,,---,0.00,VWS V13.01,2013-08-20 15:09:00,
2013-08-20 11:19:00,90.3,75.5,29.70,SE,135,2.0,7.8,62,0.00,,---,0.00,VWS V13.01,2013-08-20 15:19:00,
2013-08-20 11:29:00,90.7,75.4,29.70,ESE,112,6.7,6.7,61,0.00,,---,0.00,VWS V13.01,2013-08-20 15:29:00,
2013-08-20 11:39:00,90.9,74.6,29.71,ESE,112,15.4,15.4,59,0.00,,---,0.00,VWS V13.01,2013-08-20 15:39:00,
2013-08-20 11:48:00,91.2,74.9,29.70,ESE,112,6.0,6.0,59,0.00,,---,0.00,VWS V13.01,2013-08-20 15:48:00,
2013-08-20 11:53:00,91.0,74.7,29.70,SE,135,3.4,6.0,59,0.00,,---,0.00,VWS V13.01,2013-08-20 15:53:00,
2013-08-20 11:59:00,90.7,74.9,29.70,East,90,5.6,5.6,60,0.00,,---,0.00,VWS V13.01,2013-08-20 15:59:00,
2013-08-20 12:04:00,90.5,74.7,29.70,ESE,112,4.9,9.8,60,0.00,,---,0.00,VWS V13.01,2013-08-20 16:04:00,
2013-08-20 12:14:00,90.7,75.4,29.70,ENE,68,11.4,11.4,61,0.00,,---,0.00,VWS V13.01,2013-08-20 16:14:00,
2013-08-20 12:24:00,90.7,75.4,29.70,ENE,68,4.3,11.6,61,0.00,,---,0.00,VWS V13.01,2013-08-20 16:24:00,
2013-08-20 12:33:00,91.2,75.9,29.70,ESE,112,3.6,3.6,61,0.00,,---,0.00,VWS V13.01,2013-08-20 16:33:00,
2013-08-20 12:38:00,91.2,74.9,29.70,East,90,7.8,7.8,59,0.00,,---,0.00,VWS V13.01,2013-08-20 16:38:00,
2013-08-20 12:44:00,91.2,74.9,29.70,East,90,7.8,7.8,59,0.00,,---,0.00,VWS V13.01,2013-08-20 16:44:00,
2013-08-20 12:49:00,91.6,75.2,29.70,SE,135,6.0,10.3,59,0.00,,---,0.00,VWS V13.01,2013-08-20 16:49:00,
2013-08-20 12:58:00,91.8,75.4,29.70,ESE,112,7.2,7.8,59,0.00,,---,0.00,VWS V13.01,2013-08-20 16:58:00,
2013-08-20 13:03:00,91.6,75.7,29.70,East,90,7.8,7.8,60,0.00,,---,0.00,VWS V13.01,2013-08-20 17:03:00,
2013-08-20 13:08:00,91.6,75.7,29.70,East,90,7.8,7.8,60,0.00,,---,0.00,VWS V13.01,2013-08-20 17:08:00,
2013-08-20 13:19:00,91.9,75.1,29.70,East,90,10.1,10.1,58,0.00,,---,0.00,VWS V13.01,2013-08-20 17:19:00,
2013-08-20 13:29:00,92.1,75.2,29.69,ENE,68,1.3,8.7,58,0.00,,---,0.00,VWS V13.01,2013-08-20 17:29:00,
2013-08-20 13:38:00,92.1,75.2,29.69,East,90,6.5,6.5,58,0.00,,---,0.00,VWS V13.01,2013-08-20 17:38:00,
2013-08-20 13:43:00,91.6,75.7,29.69,ESE,112,9.0,11.0,60,0.00,,---,0.00,VWS V13.01,2013-08-20 17:43:00,
2013-08-20 13:49:00,91.8,75.9,29.69,East,90,5.6,9.0,60,0.00,,---,0.00,VWS V13.01,2013-08-20 17:49:00,
2013-08-20 13:58:00,91.6,76.2,29.69,ENE,68,1.3,5.8,61,0.00,,---,0.00,VWS V13.01,2013-08-20 17:58:00,
2013-08-20 14:04:00,91.6,76.2,29.68,East,90,7.4,7.4,61,0.00,,---,0.00,VWS V13.01,2013-08-20 18:04:00,
2013-08-20 14:09:00,91.9,76.1,29.69,East,90,2.5,9.6,60,0.00,,---,0.00,VWS V13.01,2013-08-20 18:09:00,
2013-08-20 14:14:00,92.1,76.2,29.69,ENE,68,0.0,2.9,60,0.00,,---,0.00,VWS V13.01,2013-08-20 18:14:00,
2013-08-20 14:24:00,92.3,75.4,29.68,ESE,112,7.6,13.6,58,0.00,,---,0.00,VWS V13.01,2013-08-20 18:24:00,
2013-08-20 14:33:00,91.9,75.1,29.68,SE,135,4.7,10.1,58,0.00,,---,0.00,VWS V13.01,2013-08-20 18:33:00,
2013-08-20 14:39:00,92.1,75.2,29.68,SE,135,1.6,7.4,58,0.00,,---,0.00,VWS V13.01,2013-08-20 18:39:00,
2013-08-20 14:48:00,92.1,75.2,29.68,ESE,112,2.0,2.0,58,0.00,,---,0.00,VWS V13.01,2013-08-20 18:48:00,
2013-08-20 14:54:00,91.6,74.7,29.67,SE,135,7.8,11.6,58,0.00,,---,0.00,VWS V13.01,2013-08-20 18:54:00,
2013-08-20 15:04:00,91.2,74.9,29.67,East,90,7.6,10.1,59,0.00,,---,0.00,VWS V13.01,2013-08-20 19:04:00,
2013-08-20 15:13:00,91.6,75.2,29.66,West,270,4.9,7.6,59,0.00,,---,0.00,VWS V13.01,2013-08-20 19:13:00,
2013-08-20 15:24:00,91.2,75.4,29.66,WSW,248,6.7,11.2,60,0.00,,---,0.00,VWS V13.01,2013-08-20 19:24:00,
2013-08-20 15:33:00,91.0,74.7,29.65,East,90,4.5,8.7,59,0.00,,---,0.00,VWS V13.01,2013-08-20 19:33:00,
2013-08-20 15:39:00,90.9,74.6,29.65,ENE,68,9.0,11.0,59,0.00,,---,0.00,VWS V13.01,2013-08-20 19:39:00,
2013-08-20 15:49:00,91.2,74.9,29.65,East,90,8.7,9.8,59,0.00,,---,0.00,VWS V13.01,2013-08-20 19:49:00,
2013-08-20 15:54:00,91.2,75.4,29.65,ESE,112,3.8,8.7,60,0.00,,---,0.00,VWS V13.01,2013-08-20 19:54:00,
2013-08-20 16:03:00,91.2,75.4,29.65,ESE,112,8.7,8.7,60,0.00,,---,0.00,VWS V13.01,2013-08-20 20:03:00,
2013-08-20 16:09:00,90.5,75.2,29.65,West,270,8.3,9.8,61,0.00,,---,0.00,VWS V13.01,2013-08-20 20:09:00,
2013-08-20 16:14:00,90.5,75.2,29.65,West,270,8.3,8.3,61,0.00,,---,0.00,VWS V13.01,2013-08-20 20:14:00,
2013-08-20 16:24:00,90.7,75.9,29.65,East,90,5.8,5.8,62,0.00,,---,0.00,VWS V13.01,2013-08-20 20:24:00,
2013-08-20 16:33:00,90.5,75.7,29.65,ESE,112,5.4,6.5,62,0.00,,---,0.00,VWS V13.01,2013-08-20 20:33:00,
2013-08-20 16:39:00,90.5,75.2,29.65,ENE,68,5.4,5.4,61,0.00,,---,0.00,VWS V13.01,2013-08-20 20:39:00,
2013-08-20 16:44:00,90.1,75.4,29.65,ENE,68,1.6,5.4,62,0.00,,---,0.00,VWS V13.01,2013-08-20 20:44:00,
2013-08-20 16:54:00,89.8,75.5,29.65,ESE,112,6.7,6.7,63,0.00,,---,0.00,VWS V13.01,2013-08-20 20:54:00,
2013-08-20 16:59:00,89.2,75.0,29.65,SE,135,9.2,9.2,63,0.00,,---,0.00,VWS V13.01,2013-08-20 20:59:00,
2013-08-20 17:09:00,88.9,75.1,29.65,ESE,112,6.0,7.8,64,0.00,,---,0.00,VWS V13.01,2013-08-20 21:09:00,
2013-08-20 17:14:00,88.7,75.0,29.66,ENE,68,2.0,8.7,64,0.00,,---,0.00,VWS V13.01,2013-08-20 21:14:00,
2013-08-20 17:19:00,88.9,75.1,29.65,East,90,4.9,6.5,64,0.00,,---,0.00,VWS V13.01,2013-08-20 21:19:00,
2013-08-20 17:29:00,88.9,75.1,29.65,ESE,112,6.0,6.0,64,0.00,,---,0.00,VWS V13.01,2013-08-20 21:29:00,
2013-08-20 17:38:00,88.5,74.8,29.65,ESE,112,3.6,4.7,64,0.00,,---,0.00,VWS V13.01,2013-08-20 21:38:00,
2013-08-20 17:43:00,88.5,74.8,29.65,ESE,112,3.6,3.6,64,0.00,,---,0.00,VWS V13.01,2013-08-20 21:43:00,
2013-08-20 17:49:00,89.1,75.3,29.65,WNW,292,3.1,3.6,64,0.00,,---,0.00,VWS V13.01,2013-08-20 21:49:00,
2013-08-20 17:58:00,88.9,75.1,29.64,WSW,248,4.7,4.7,64,0.00,,---,0.00,VWS V13.01,2013-08-20 21:58:00,
2013-08-20 18:03:00,89.4,75.6,29.64,WSW,248,0.0,4.7,64,0.00,,---,0.00,VWS V13.01,2013-08-20 22:03:00,
2013-08-20 18:13:00,89.4,75.6,29.64,WSW,248,1.6,1.6,64,0.00,,---,0.00,VWS V13.01,2013-08-20 22:13:00,
2013-08-20 18:23:00,88.9,75.1,29.64,ENE,68,0.0,1.6,64,0.00,,---,0.00,VWS V13.01,2013-08-20 22:23:00,
2013-08-20 18:29:00,88.9,75.1,29.64,WSW,248,2.2,2.2,64,0.00,,---,0.00,VWS V13.01,2013-08-20 22:29:00,
2013-08-20 18:39:00,88.2,74.9,29.65,NNE,22,6.7,6.7,65,0.00,,---,0.00,VWS V13.01,2013-08-20 22:39:00,
2013-08-20 18:48:00,87.6,74.9,29.65,ENE,68,4.5,4.9,66,0.00,,---,0.00,VWS V13.01,2013-08-20 22:48:00,
2013-08-20 18:53:00,87.4,74.7,29.65,East,90,1.6,4.5,66,0.00,,---,0.00,VWS V13.01,2013-08-20 22:53:00,
2013-08-20 19:03:00,86.7,74.9,29.64,ESE,112,5.4,7.4,68,0.00,,---,0.00,VWS V13.01,2013-08-20 23:03:00,
2013-08-20 19:13:00,86.7,74.9,29.64,ESE,112,7.8,7.8,68,0.00,,---,0.00,VWS V13.01,2013-08-20 23:13:00,
2013-08-20 19:19:00,86.2,74.4,29.64,ESE,112,9.8,9.8,68,0.00,,---,0.00,VWS V13.01,2013-08-20 23:19:00,
2013-08-20 19:28:00,85.8,74.0,29.64,ESE,112,6.9,6.9,68,0.00,,---,0.00,VWS V13.01,2013-08-20 23:28:00,
2013-08-20 19:38:00,85.8,74.0,29.64,NE,45,0.0,4.7,68,0.00,,---,0.00,VWS V13.01,2013-08-20 23:38:00,
2013-08-20 19:44:00,85.8,74.0,29.65,NE,45,0.0,0.0,68,0.00,,---,0.00,VWS V13.01,2013-08-20 23:44:00,
2013-08-20 19:49:00,85.6,73.9,29.65,ESE,112,5.4,5.4,68,0.00,,---,0.00,VWS V13.01,2013-08-20 23:49:00,
2013-08-20 19:58:00,85.6,74.3,29.65,East,90,5.1,6.9,69,0.00,,---,0.00,VWS V13.01,2013-08-20 23:58:00,
2013-08-20 20:04:00,85.3,74.0,29.65,East,90,1.6,7.4,69,0.00,,---,0.00,VWS V13.01,2013-08-21 00:04:00,
2013-08-20 20:14:00,85.1,73.8,29.66,ENE,68,0.9,10.3,69,0.00,,---,0.00,VWS V13.01,2013-08-21 00:14:00,
2013-08-20 20:24:00,85.1,73.8,29.66,East,90,0.9,0.9,69,0.00,,---,0.00,VWS V13.01,2013-08-21 00:24:00,
2013-08-20 20:34:00,84.9,74.1,29.66,ENE,68,4.3,4.3,70,0.00,,---,0.00,VWS V13.01,2013-08-21 00:34:00,
2013-08-20 20:43:00,84.9,74.1,29.66,NE,45,1.1,5.6,70,0.00,,---,0.00,VWS V13.01,2013-08-21 00:43:00,
2013-08-20 20:49:00,84.9,74.1,29.67,East,90,2.2,2.2,70,0.00,,---,0.00,VWS V13.01,2013-08-21 00:49:00,
2013-08-20 20:54:00,84.9,73.6,29.67,ESE,112,1.6,2.2,69,0.00,,---,0.00,VWS V13.01,2013-08-21 00:54:00,
2013-08-20 20:59:00,84.7,73.4,29.67,ESE,112,3.6,6.5,69,0.00,,---,0.00,VWS V13.01,2013-08-21 00:59:00,
2013-08-20 21:08:00,84.7,73.9,29.68,East,90,4.5,4.5,70,0.00,,---,0.00,VWS V13.01,2013-08-21 01:08:00,
2013-08-20 21:18:00,84.7,73.9,29.68,East,90,4.7,8.5,70,0.00,,---,0.00,VWS V13.01,2013-08-21 01:18:00,
2013-08-20 21:24:00,84.7,74.3,29.68,East,90,6.9,6.9,71,0.00,,---,0.00,VWS V13.01,2013-08-21 01:24:00,
2013-08-20 21:29:00,84.7,74.3,29.68,ESE,112,2.7,6.9,71,0.00,,---,0.00,VWS V13.01,2013-08-21 01:29:00,
2013-08-20 21:38:00,84.7,74.3,29.68,ESE,112,0.4,7.2,71,0.00,,---,0.00,VWS V13.01,2013-08-21 01:38:00,
2013-08-20 21:43:00,84.7,74.3,29.69,East,90,0.0,0.4,71,0.00,,---,0.00,VWS V13.01,2013-08-21 01:43:00,
2013-08-20 21:49:00,84.7,74.3,29.69,East,90,2.9,2.9,71,0.00,,---,0.00,VWS V13.01,2013-08-21 01:49:00,
2013-08-20 21:54:00,84.7,74.3,29.69,East,90,2.9,2.9,71,0.00,,---,0.00,VWS V13.01,2013-08-21 01:54:00,
2013-08-20 22:03:00,84.6,75.0,29.69,ENE,68,1.3,4.5,73,0.00,,---,0.00,VWS V13.01,2013-08-21 02:03:00,
2013-08-20 22:08:00,84.6,75.0,29.69,ENE,68,1.3,1.3,73,0.00,,---,0.00,VWS V13.01,2013-08-21 02:08:00,
2013-08-20 22:18:00,84.4,74.8,29.70,East,90,2.0,2.0,73,0.00,,---,0.00,VWS V13.01,2013-08-21 02:18:00,
2013-08-20 22:24:00,84.4,74.8,29.70,ESE,112,3.6,3.6,73,0.00,,---,0.00,VWS V13.01,2013-08-21 02:24:00,
2013-08-20 22:34:00,84.4,74.4,29.70,ESE,112,0.9,2.5,72,0.00,,---,0.00,VWS V13.01,2013-08-21 02:34:00,
2013-08-20 22:43:00,84.4,74.4,29.70,NE,45,1.8,3.6,72,0.00,,---,0.00,VWS V13.01,2013-08-21 02:43:00,
2013-08-20 22:49:00,84.4,74.4,29.70,NE,45,0.0,1.8,72,0.00,,---,0.00,VWS V13.01,2013-08-21 02:49:00,
2013-08-20 22:58:00,84.4,74.4,29.70,SE,135,0.0,0.2,72,0.00,,---,0.00,VWS V13.01,2013-08-21 02:58:00,
2013-08-20 23:04:00,84.4,74.4,29.70,ESE,112,5.1,5.1,72,0.00,,---,0.00,VWS V13.01,2013-08-21 03:04:00,
2013-08-20 23:09:00,84.2,74.2,29.71,ENE,68,3.4,5.1,72,0.00,,---,0.00,VWS V13.01,2013-08-21 03:09:00,
2013-08-20 23:14:00,84.4,74.4,29.72,ESE,112,1.6,3.4,72,0.00,,---,0.00,VWS V13.01,2013-08-21 03:14:00,
2013-08-20 23:23:00,84.4,74.4,29.71,East,90,0.4,1.8,72,0.00,,---,0.00,VWS V13.01,2013-08-21 03:23:00,
2013-08-20 23:28:00,84.4,74.4,29.71,ENE,68,0.0,0.7,72,0.00,,---,0.00,VWS V13.01,2013-08-21 03:28:00,
2013-08-20 23:33:00,84.4,74.4,29.71,ENE,68,1.6,2.9,72,0.00,,---,0.00,VWS V13.01,2013-08-21 03:33:00,
2013-08-20 23:44:00,84.4,74.4,29.71,East,90,3.4,3.4,72,0.00,,---,0.00,VWS V13.01,2013-08-21 03:44:00,
2013-08-20 23:49:00,84.4,74.4,29.70,East,90,0.0,3.4,72,0.00,,---,0.00,VWS V13.01,2013-08-21 03:49:00,
2013-08-20 23:54:00,84.4,74.4,29.70,ENE,68,2.2,3.1,72,0.00,,---,0.00,VWS V13.01,2013-08-21 03:54:00,